createdAt,value
2023-02-04T07:27:02.249Z,102706.63
2023-02-04T07:29:30.470Z,102716.88
2023-02-04T07:31:58.599Z,102722.81
2023-02-04T07:34:26.587Z,102715.94
2023-02-04T07:36:55.057Z,102729.59
2023-02-04T07:39:22.961Z,102733.94
2023-02-04T07:41:51.052Z,102741.59
2023-02-04T07:44:18.945Z,102744.25
2023-02-04T07:46:46.910Z,102750.25
2023-02-04T07:49:14.923Z,102751.97
2023-02-04T07:51:42.815Z,102763.03
2023-02-04T07:54:12.140Z,102769.03
2023-02-04T07:56:40.002Z,102762.13
2023-02-04T07:59:08.107Z,102778.50
2023-02-04T08:01:36.013Z,102781.88
2023-02-04T08:04:04.221Z,102797.34
2023-02-04T08:06:32.155Z,102797.34
2023-02-04T08:08:59.985Z,102807.53
2023-02-04T08:11:28.227Z,102807.47
2023-02-04T08:13:56.076Z,102818.00
2023-02-04T08:16:24.155Z,102810.03
2023-02-04T08:18:52.091Z,102815.19
2023-02-04T08:21:20.345Z,102815.22
2023-02-04T08:23:48.247Z,102816.75
2023-02-04T08:26:16.185Z,102814.94
2023-02-04T08:28:44.069Z,102829.66
2023-02-04T08:31:12.243Z,102833.84
2023-02-04T08:33:40.285Z,102833.03
2023-02-04T08:36:08.740Z,102839.81
2023-02-04T08:38:36.661Z,102832.63
2023-02-04T08:41:05.127Z,102842.19
2023-02-04T08:43:33.055Z,102841.50
2023-02-04T08:46:00.920Z,102837.84
2023-02-04T08:48:28.925Z,102836.44
2023-02-04T08:50:56.859Z,102845.25
2023-02-04T08:53:24.716Z,102851.25
2023-02-04T08:55:52.585Z,102852.47
2023-02-04T08:58:20.460Z,102858.91
2023-02-04T09:00:48.620Z,102852.72
2023-02-04T09:03:16.600Z,102862.06
2023-02-04T09:05:46.949Z,102859.28
2023-02-04T09:08:15.794Z,102862.50
2023-02-04T09:10:43.659Z,102867.00
2023-02-04T09:13:11.778Z,102862.91
2023-02-04T09:15:39.747Z,102873.28
2023-02-04T09:18:19.120Z,102875.91
2023-02-04T09:20:47.448Z,102882.00
2023-02-04T09:23:16.598Z,102884.88
2023-02-04T09:25:46.246Z,102886.38
2023-02-04T09:28:16.944Z,102895.09
2023-02-04T09:30:47.442Z,102895.28
2023-02-04T09:33:17.065Z,102900.28
2023-02-04T09:35:45.589Z,102904.44
2023-02-04T09:38:13.686Z,102910.50
2023-02-04T09:40:56.124Z,102911.47
2023-02-04T09:43:31.183Z,102915.50
2023-02-04T09:45:59.678Z,102912.50
2023-02-04T09:48:46.567Z,102920.09
2023-02-04T09:51:30.258Z,102914.97
2023-02-04T09:54:28.403Z,102925.59
2023-02-04T09:56:57.433Z,102924.28
2023-02-04T09:59:29.588Z,102923.50
2023-02-04T10:02:19.874Z,102924.59
2023-02-04T10:04:48.183Z,102923.75
2023-02-04T10:07:22.338Z,102928.69
2023-02-04T10:09:51.470Z,102930.88
2023-02-04T10:12:20.301Z,102930.06
2023-02-04T10:14:48.788Z,102943.44
2023-02-04T10:17:23.576Z,102941.22
2023-02-04T10:19:51.901Z,102946.44
2023-02-04T10:22:22.511Z,102954.88
2023-02-04T10:24:50.373Z,102954.97
2023-02-04T10:27:18.358Z,102953.19
2023-02-04T10:29:59.391Z,102954.78
2023-02-04T10:32:36.175Z,102947.28
2023-02-04T10:35:04.675Z,102961.69
2023-02-04T10:37:32.539Z,102953.72
2023-02-04T10:40:00.491Z,102956.31
2023-02-04T10:42:31.490Z,102951.59
2023-02-04T10:44:59.668Z,102956.69
2023-02-04T10:47:31.960Z,102957.97
2023-02-04T10:50:15.678Z,102958.13
2023-02-04T10:52:55.446Z,102951.94
2023-02-04T10:55:25.866Z,102956.38
2023-02-04T10:57:54.489Z,102955.56
2023-02-04T11:00:26.684Z,102949.84
2023-02-04T11:03:04.897Z,102951.91
2023-02-04T11:05:39.136Z,102957.63
2023-02-04T11:08:36.627Z,102959.63
2023-02-04T11:11:25.590Z,102960.75
2023-02-04T11:13:55.022Z,102955.78
2023-02-04T11:16:35.449Z,102964.38
2023-02-04T11:19:13.028Z,102958.50
2023-02-04T11:21:46.070Z,102964.81
2023-02-04T11:24:13.771Z,102964.97
2023-02-04T11:26:54.571Z,102965.75
2023-02-04T11:29:38.100Z,102974.63
2023-02-04T11:32:38.775Z,102971.50
2023-02-04T11:35:29.063Z,102975.78
2023-02-04T11:37:58.724Z,102981.75
2023-02-04T11:40:34.926Z,102986.78
2023-02-04T11:43:24.728Z,102991.25
2023-02-04T11:46:16.825Z,102992.97
2023-02-04T11:48:45.091Z,103000.59
2023-02-04T11:51:20.930Z,102998.47
2023-02-04T11:53:52.824Z,103006.22
2023-02-04T11:56:22.994Z,103017.03
2023-02-04T11:58:51.321Z,103024.22
2023-02-04T12:01:25.671Z,103009.13
2023-02-04T12:04:08.144Z,103008.84
2023-02-04T12:06:40.129Z,103018.19
2023-02-04T12:09:16.780Z,103003.19
2023-02-04T12:12:02.480Z,103003.50
2023-02-04T12:14:38.790Z,102994.69
2023-02-04T12:17:20.629Z,103000.47
2023-02-04T12:19:48.571Z,103004.88
2023-02-04T12:22:17.215Z,103002.94
2023-02-04T12:24:45.266Z,103002.03
2023-02-04T12:27:13.314Z,103007.44
2023-02-04T12:29:41.203Z,103006.19
2023-02-04T12:32:09.101Z,103012.59
2023-02-04T12:34:36.997Z,103008.59
2023-02-04T12:37:07.686Z,103022.50
2023-02-04T12:39:35.884Z,103023.34
2023-02-04T12:42:04.504Z,103022.69
2023-02-04T12:44:32.429Z,103029.38
2023-02-04T12:47:00.277Z,103018.00
2023-02-04T12:49:28.219Z,103007.78
2023-02-04T12:51:59.121Z,103009.13
2023-02-04T12:54:26.972Z,103007.34
2023-02-04T12:56:58.094Z,103011.66
2023-02-04T12:59:26.467Z,103020.63
2023-02-04T13:01:54.485Z,103019.75
2023-02-04T13:04:22.380Z,103027.78
2023-02-04T13:06:50.312Z,103023.91
2023-02-04T13:09:18.171Z,103029.09
2023-02-04T13:11:46.116Z,103034.59
2023-02-04T13:14:13.993Z,103035.50
2023-02-04T13:16:42.032Z,103029.41
2023-02-04T13:19:09.853Z,103038.03
2023-02-04T13:21:37.732Z,103040.00
2023-02-04T13:24:05.749Z,103040.88
2023-02-04T13:26:33.639Z,103044.34
2023-02-04T13:29:01.496Z,103049.84
2023-02-04T13:31:29.447Z,103050.56
2023-02-04T13:33:57.344Z,103050.97
2023-02-04T13:36:27.699Z,103055.00
2023-02-04T13:38:55.958Z,103059.34
2023-02-04T13:41:23.841Z,103052.59
2023-02-04T13:43:52.070Z,103059.34
2023-02-04T13:46:21.342Z,103057.72
2023-02-04T13:48:50.738Z,103051.38
2023-02-04T13:51:18.644Z,103050.50
2023-02-04T13:53:46.572Z,103049.09
2023-02-04T13:56:14.577Z,103044.66
2023-02-04T13:58:43.858Z,103054.03
2023-02-04T14:01:13.334Z,103056.09
2023-02-04T14:03:42.772Z,103052.50
2023-02-04T14:06:11.480Z,103056.00
2023-02-04T14:08:39.555Z,103067.81
2023-02-04T14:11:07.453Z,103062.56
2023-02-04T14:13:35.730Z,103061.72
2023-02-04T14:16:03.872Z,103066.63
2023-02-04T14:18:31.866Z,103063.19
2023-02-04T14:20:59.725Z,103062.81
2023-02-04T14:23:27.677Z,103066.50
2023-02-04T14:25:55.827Z,103074.59
2023-02-04T14:28:23.741Z,103076.84
2023-02-04T14:30:51.863Z,103081.66
2023-02-04T14:33:20.644Z,103085.78
2023-02-04T14:35:48.710Z,103084.28
2023-02-04T14:38:19.657Z,103086.88
2023-02-04T14:40:47.504Z,103093.13
2023-02-04T14:43:15.369Z,103086.16
2023-02-04T14:45:43.344Z,103095.53
2023-02-04T14:48:11.335Z,103090.47
2023-02-04T14:50:39.177Z,103096.00
2023-02-04T14:53:07.167Z,103092.97
2023-02-04T14:55:35.055Z,103088.53
2023-02-04T14:58:03.030Z,103092.16
2023-02-04T15:00:31.594Z,103100.03
2023-02-04T15:02:59.674Z,103106.09
2023-02-04T15:05:27.533Z,103103.03
2023-02-04T15:07:55.493Z,103105.75
2023-02-04T15:10:24.801Z,103109.81
2023-02-04T15:12:55.192Z,103114.22
2023-02-04T15:15:23.270Z,103113.72
2023-02-04T15:17:51.453Z,103118.88
2023-02-04T15:20:19.483Z,103136.09
2023-02-04T15:22:51.756Z,103127.53
2023-02-04T15:25:20.241Z,103126.09
2023-02-04T15:27:48.308Z,103125.78
2023-02-04T15:30:16.883Z,103127.63
2023-02-04T15:32:46.019Z,103127.31
2023-02-04T15:35:14.105Z,103125.66
2023-02-04T15:37:41.984Z,103128.09
2023-02-04T15:40:14.407Z,103125.69
2023-02-04T15:42:42.865Z,103139.69
2023-02-04T15:45:10.774Z,103135.09
2023-02-04T15:47:38.724Z,103137.22
2023-02-04T15:50:09.083Z,103139.00
2023-02-04T15:52:37.589Z,103136.41
2023-02-04T15:55:06.049Z,103148.59
2023-02-04T15:57:34.038Z,103145.22
2023-02-04T16:00:02.172Z,103152.91
2023-02-04T16:02:30.166Z,103154.81
2023-02-04T16:04:58.544Z,103151.38
2023-02-04T16:07:26.414Z,103157.41
2023-02-04T16:09:54.253Z,103160.84
2023-02-04T16:12:22.092Z,103160.84
2023-02-04T16:14:50.017Z,103167.81
2023-02-04T16:17:19.135Z,103169.53
2023-02-04T16:19:47.134Z,103168.69
2023-02-04T16:22:15.140Z,103165.25
2023-02-04T16:24:43.082Z,103164.38
2023-02-04T16:27:11.394Z,103171.28
2023-02-04T16:29:39.289Z,103170.41
2023-02-04T16:32:07.154Z,103167.81
2023-02-04T16:34:35.097Z,103176.41
2023-02-04T16:37:02.998Z,103175.56
2023-02-04T16:39:30.943Z,103172.09
2023-02-04T16:41:59.044Z,103179.00
2023-02-04T16:44:26.942Z,103185.88
2023-02-04T16:46:55.213Z,103183.28
2023-02-04T16:49:23.332Z,103182.41
2023-02-04T16:51:51.216Z,103181.56
2023-02-04T16:54:19.097Z,103175.50
2023-02-04T16:56:47.412Z,103190.03
2023-02-04T16:59:15.509Z,103185.75
2023-02-04T17:01:43.398Z,103190.03
2023-02-04T17:04:11.306Z,103190.88
2023-02-04T17:06:39.429Z,103196.03
2023-02-04T17:09:07.427Z,103199.50
2023-02-04T17:11:36.949Z,103202.00
2023-02-04T17:14:15.630Z,103201.94
2023-02-04T17:16:45.628Z,103208.88
2023-02-04T17:19:21.099Z,103218.28
2023-02-04T17:21:49.341Z,103216.59
2023-02-04T17:24:17.374Z,103214.03
2023-02-04T17:26:47.446Z,103214.03
2023-02-04T17:29:21.909Z,103221.69
2023-02-04T17:31:49.930Z,103223.28
2023-02-04T17:34:18.173Z,103218.38
2023-02-04T17:36:46.216Z,103227.56
2023-02-04T17:39:14.067Z,103220.81
2023-02-04T17:41:41.940Z,103228.53
2023-02-04T17:44:16.764Z,103229.47
2023-02-04T17:46:44.737Z,103236.41
2023-02-04T17:49:12.892Z,103239.66
2023-02-04T17:51:40.933Z,103229.25
2023-02-04T17:54:12.169Z,103231.78
2023-02-04T17:56:40.107Z,103241.38
2023-02-04T17:59:11.127Z,103235.09
2023-02-04T18:01:41.753Z,103241.97
2023-02-04T18:04:13.833Z,103234.13
2023-02-04T18:06:41.792Z,103229.03
2023-02-04T18:09:18.646Z,103227.19
2023-02-04T18:11:46.833Z,103241.09
2023-02-04T18:14:27.845Z,103238.41
2023-02-04T18:16:59.569Z,103231.38
2023-02-04T18:19:37.102Z,103239.22
2023-02-04T18:22:17.207Z,103241.81
2023-02-04T18:24:48.736Z,103239.88
2023-02-04T18:27:31.139Z,103237.16
2023-02-04T18:30:01.424Z,103240.56
2023-02-04T18:32:48.234Z,103250.94
2023-02-04T18:35:48.187Z,103247.63
2023-02-04T18:38:37.083Z,103255.72
2023-02-04T18:41:27.726Z,103259.25
2023-02-04T18:44:16.744Z,103256.50
2023-02-04T18:46:48.263Z,103266.81
2023-02-04T18:49:39.703Z,103271.16
2023-02-04T18:52:21.389Z,103269.16
2023-02-04T18:55:00.659Z,103269.19
2023-02-04T18:57:39.677Z,103272.72
2023-02-04T19:00:10.218Z,103270.25
2023-02-04T19:02:55.108Z,103281.97
2023-02-04T19:05:42.627Z,103277.81
2023-02-04T19:08:26.601Z,103281.81
2023-02-04T19:10:59.973Z,103276.28
2023-02-04T19:13:41.721Z,103286.28
2023-02-04T19:16:25.566Z,103275.03
2023-02-04T19:18:54.901Z,103284.53
2023-02-04T19:21:34.204Z,103285.66
2023-02-04T19:24:26.997Z,103284.34
2023-02-04T19:27:01.429Z,103285.28
2023-02-04T19:29:40.487Z,103290.66
2023-02-04T19:32:37.667Z,103287.69
2023-02-04T19:35:22.675Z,103285.75
2023-02-04T19:38:41.754Z,103290.81
2023-02-04T19:41:42.223Z,103290.22
2023-02-04T19:44:12.881Z,103293.09
2023-02-04T19:46:44.814Z,103294.66
2023-02-04T19:49:36.813Z,103294.56
2023-02-04T19:52:30.043Z,103295.50
2023-02-04T19:55:44.145Z,103306.03
2023-02-04T19:58:23.006Z,103313.75
2023-02-04T20:01:11.173Z,103306.63
2023-02-04T20:03:45.481Z,103306.56
2023-02-04T20:06:30.639Z,103309.38
2023-02-04T20:09:28.589Z,103316.31
2023-02-04T20:12:23.045Z,103313.91
2023-02-04T20:14:57.192Z,103311.50
2023-02-04T20:18:20.001Z,103308.25
2023-02-04T20:20:47.889Z,103316.59
2023-02-04T20:23:31.843Z,103321.47
2023-02-04T20:26:01.833Z,103322.25
2023-02-04T20:28:45.698Z,103324.94
2023-02-04T20:31:34.757Z,103321.28
2023-02-04T20:34:02.620Z,103314.06
2023-02-04T20:36:42.486Z,103313.81
2023-02-04T20:39:29.832Z,103316.38
2023-02-04T20:42:45.059Z,103318.88
2023-02-04T20:45:54.915Z,103327.53
2023-02-04T20:48:37.527Z,103330.56
2023-02-04T20:51:14.869Z,103331.22
2023-02-04T20:53:55.456Z,103334.84
2023-02-04T20:56:30.386Z,103336.47
2023-02-04T20:59:30.426Z,103339.44
2023-02-04T21:02:00.264Z,103337.63
2023-02-04T21:04:43.845Z,103325.09
2023-02-04T21:07:21.122Z,103320.38
2023-02-04T21:09:49.894Z,103322.22
2023-02-04T21:12:17.807Z,103319.91
2023-02-04T21:14:45.727Z,103327.06
2023-02-04T21:17:13.591Z,103321.56
2023-02-04T21:19:41.454Z,103329.47
2023-02-04T21:22:09.363Z,103335.56
2023-02-04T21:24:37.268Z,103327.75
2023-02-04T21:27:05.210Z,103329.22
2023-02-04T21:29:33.081Z,103319.97
2023-02-04T21:32:03.026Z,103325.25
2023-02-04T21:34:31.337Z,103330.38
2023-02-04T21:36:59.252Z,103330.25
2023-02-04T21:39:27.486Z,103340.56
2023-02-04T21:42:09.951Z,103343.16
2023-02-04T21:44:38.668Z,103355.28
2023-02-04T21:47:06.549Z,103358.75
2023-02-04T21:49:34.393Z,103358.53
2023-02-04T21:52:02.262Z,103349.03
2023-02-04T21:54:30.115Z,103358.19
2023-02-04T21:57:01.856Z,103352.31
2023-02-04T21:59:32.763Z,103355.78
2023-02-04T22:02:00.724Z,103351.34
2023-02-04T22:04:28.747Z,103360.75
2023-02-04T22:06:56.582Z,103353.28
2023-02-04T22:09:24.539Z,103359.13
2023-02-04T22:11:55.374Z,103357.34
2023-02-04T22:14:23.372Z,103358.06
2023-02-04T22:16:51.247Z,103355.44
2023-02-04T22:19:19.630Z,103355.56
2023-02-04T22:21:47.476Z,103357.56
2023-02-04T22:24:15.421Z,103351.75
2023-02-04T22:26:43.443Z,103350.16
2023-02-04T22:29:13.689Z,103347.94
2023-02-04T22:31:41.775Z,103339.44
2023-02-04T22:34:09.896Z,103333.69
2023-02-04T22:36:38.464Z,103341.28
2023-02-04T22:39:06.820Z,103345.22
2023-02-04T22:41:34.707Z,103341.00
2023-02-04T22:44:02.630Z,103338.63
2023-02-04T22:46:30.589Z,103337.69
2023-02-04T22:48:58.529Z,103336.09
2023-02-04T22:51:29.086Z,103344.03
2023-02-04T22:53:56.924Z,103348.53
2023-02-04T22:56:24.878Z,103346.91
2023-02-04T22:58:55.471Z,103338.50
2023-02-04T23:01:23.355Z,103337.53
2023-02-04T23:03:51.271Z,103341.53
2023-02-04T23:06:19.161Z,103341.88
2023-02-04T23:08:47.333Z,103342.91
2023-02-04T23:11:18.441Z,103343.88
2023-02-04T23:13:46.629Z,103342.09
2023-02-04T23:16:14.599Z,103349.94
2023-02-04T23:18:42.510Z,103339.38
2023-02-04T23:21:10.719Z,103342.63
2023-02-04T23:23:38.823Z,103343.13
2023-02-04T23:26:06.956Z,103335.47
2023-02-04T23:28:34.781Z,103341.97
2023-02-04T23:31:02.701Z,103340.88
2023-02-04T23:33:30.648Z,103331.16
2023-02-04T23:35:58.725Z,103326.66
2023-02-04T23:38:26.839Z,103336.09
2023-02-04T23:40:56.990Z,103332.75
2023-02-04T23:43:24.844Z,103335.81
2023-02-04T23:45:52.933Z,103336.75
2023-02-04T23:48:20.812Z,103332.72
2023-02-04T23:50:48.713Z,103327.13
2023-02-04T23:53:16.574Z,103325.97
2023-02-04T23:55:44.907Z,103318.06
2023-02-04T23:58:12.842Z,103322.09
